sensor_id;sensor_type;location;lat;lon;timestamp;P1;durP1;ratioP1;P2;durP2;ratioP2
15905;SDS011;8051;50.820;4.884;2024-02-16T00:00:40;31.20;;;29.10;;
15905;SDS011;8051;50.820;4.884;2024-02-16T00:03:09;31.27;;;29.20;;
15905;SDS011;8051;50.820;4.884;2024-02-16T00:05:37;31.30;;;29.30;;
15905;SDS011;8051;50.820;4.884;2024-02-16T00:08:04;30.40;;;28.60;;
15905;SDS011;8051;50.820;4.884;2024-02-16T00:10:33;31.67;;;29.67;;
15905;SDS011;8051;50.820;4.884;2024-02-16T00:13:00;32.67;;;30.47;;
15905;SDS011;8051;50.820;4.884;2024-02-16T00:15:28;32.43;;;30.23;;
15905;SDS011;8051;50.820;4.884;2024-02-16T00:17:55;33.43;;;31.03;;
15905;SDS011;8051;50.820;4.884;2024-02-16T00:20:24;33.10;;;30.80;;
15905;SDS011;8051;50.820;4.884;2024-02-16T00:22:51;31.00;;;29.00;;
15905;SDS011;8051;50.820;4.884;2024-02-16T00:25:19;32.07;;;29.97;;
15905;SDS011;8051;50.820;4.884;2024-02-16T00:27:47;32.13;;;29.93;;
15905;SDS011;8051;50.820;4.884;2024-02-16T00:30:16;31.30;;;29.20;;
15905;SDS011;8051;50.820;4.884;2024-02-16T00:32:43;31.40;;;29.30;;
15905;SDS011;8051;50.820;4.884;2024-02-16T00:35:11;31.17;;;29.07;;
15905;SDS011;8051;50.820;4.884;2024-02-16T00:37:39;32.03;;;29.80;;
15905;SDS011;8051;50.820;4.884;2024-02-16T00:40:07;32.77;;;30.67;;
15905;SDS011;8051;50.820;4.884;2024-02-16T00:42:35;33.40;;;31.20;;
15905;SDS011;8051;50.820;4.884;2024-02-16T00:45:04;33.13;;;30.83;;
15905;SDS011;8051;50.820;4.884;2024-02-16T00:47:33;32.23;;;30.03;;
15905;SDS011;8051;50.820;4.884;2024-02-16T00:50:01;31.87;;;29.77;;
15905;SDS011;8051;50.820;4.884;2024-02-16T00:52:30;31.90;;;29.80;;
15905;SDS011;8051;50.820;4.884;2024-02-16T00:54:58;33.63;;;31.23;;
15905;SDS011;8051;50.820;4.884;2024-02-16T00:57:25;33.43;;;31.13;;
15905;SDS011;8051;50.820;4.884;2024-02-16T00:59:53;32.60;;;30.50;;
15905;SDS011;8051;50.820;4.884;2024-02-16T01:02:21;35.53;;;33.13;;
15905;SDS011;8051;50.820;4.884;2024-02-16T01:04:49;33.57;;;31.07;;
15905;SDS011;8051;50.820;4.884;2024-02-16T01:07:18;33.53;;;31.23;;
15905;SDS011;8051;50.820;4.884;2024-02-16T01:09:45;33.93;;;31.53;;
15905;SDS011;8051;50.820;4.884;2024-02-16T01:12:13;35.30;;;32.90;;
15905;SDS011;8051;50.820;4.884;2024-02-16T01:14:41;32.20;;;30.00;;
15905;SDS011;8051;50.820;4.884;2024-02-16T01:17:08;34.50;;;31.80;;
15905;SDS011;8051;50.820;4.884;2024-02-16T01:19:37;28.27;;;26.37;;
15905;SDS011;8051;50.820;4.884;2024-02-16T01:22:05;28.40;;;26.27;;
15905;SDS011;8051;50.820;4.884;2024-02-16T01:24:33;28.27;;;26.13;;
15905;SDS011;8051;50.820;4.884;2024-02-16T01:27:00;27.33;;;25.53;;
15905;SDS011;8051;50.820;4.884;2024-02-16T01:29:27;28.20;;;26.07;;
15905;SDS011;8051;50.820;4.884;2024-02-16T01:31:55;28.30;;;26.50;;
15905;SDS011;8051;50.820;4.884;2024-02-16T01:34:22;27.70;;;25.53;;
15905;SDS011;8051;50.820;4.884;2024-02-16T01:36:51;26.90;;;25.10;;
15905;SDS011;8051;50.820;4.884;2024-02-16T01:39:19;27.60;;;25.70;;
15905;SDS011;8051;50.820;4.884;2024-02-16T01:41:46;26.50;;;24.80;;
15905;SDS011;8051;50.820;4.884;2024-02-16T01:44:14;28.30;;;26.13;;
15905;SDS011;8051;50.820;4.884;2024-02-16T01:46:42;27.60;;;25.80;;
15905;SDS011;8051;50.820;4.884;2024-02-16T01:49:09;26.83;;;25.03;;
15905;SDS011;8051;50.820;4.884;2024-02-16T01:51:39;25.87;;;24.07;;
15905;SDS011;8051;50.820;4.884;2024-02-16T01:54:08;26.47;;;24.67;;
15905;SDS011;8051;50.820;4.884;2024-02-16T01:56:35;27.03;;;25.00;;
15905;SDS011;8051;50.820;4.884;2024-02-16T01:59:02;26.90;;;24.97;;
15905;SDS011;8051;50.820;4.884;2024-02-16T02:01:30;27.10;;;25.33;;
15905;SDS011;8051;50.820;4.884;2024-02-16T02:03:57;26.67;;;24.87;;
15905;SDS011;8051;50.820;4.884;2024-02-16T02:06:25;27.07;;;25.17;;
15905;SDS011;8051;50.820;4.884;2024-02-16T02:08:52;26.57;;;24.63;;
15905;SDS011;8051;50.820;4.884;2024-02-16T02:11:21;26.63;;;24.83;;
15905;SDS011;8051;50.820;4.884;2024-02-16T02:13:49;26.80;;;24.90;;
15905;SDS011;8051;50.820;4.884;2024-02-16T02:16:16;26.73;;;24.80;;
15905;SDS011;8051;50.820;4.884;2024-02-16T02:18:45;27.10;;;25.10;;
15905;SDS011;8051;50.820;4.884;2024-02-16T02:21:13;26.13;;;24.20;;
15905;SDS011;8051;50.820;4.884;2024-02-16T02:23:41;25.73;;;24.03;;
15905;SDS011;8051;50.820;4.884;2024-02-16T02:26:09;27.53;;;25.60;;
15905;SDS011;8051;50.820;4.884;2024-02-16T02:28:36;27.83;;;25.87;;
15905;SDS011;8051;50.820;4.884;2024-02-16T02:31:04;28.30;;;25.87;;
15905;SDS011;8051;50.820;4.884;2024-02-16T02:33:34;27.63;;;25.53;;
15905;SDS011;8051;50.820;4.884;2024-02-16T02:36:02;26.87;;;24.87;;
15905;SDS011;8051;50.820;4.884;2024-02-16T02:38:30;25.13;;;23.43;;
15905;SDS011;8051;50.820;4.884;2024-02-16T02:40:59;26.00;;;24.20;;
15905;SDS011;8051;50.820;4.884;2024-02-16T02:43:29;25.97;;;24.17;;
15905;SDS011;8051;50.820;4.884;2024-02-16T02:45:56;26.13;;;24.43;;
15905;SDS011;8051;50.820;4.884;2024-02-16T02:48:23;27.33;;;25.33;;
15905;SDS011;8051;50.820;4.884;2024-02-16T02:50:51;26.73;;;24.73;;
15905;SDS011;8051;50.820;4.884;2024-02-16T02:53:18;26.13;;;24.23;;
15905;SDS011;8051;50.820;4.884;2024-02-16T02:55:47;25.70;;;23.80;;
15905;SDS011;8051;50.820;4.884;2024-02-16T02:58:16;25.60;;;23.90;;
15905;SDS011;8051;50.820;4.884;2024-02-16T03:00:44;25.80;;;24.00;;
15905;SDS011;8051;50.820;4.884;2024-02-16T03:03:11;25.57;;;23.80;;
15905;SDS011;8051;50.820;4.884;2024-02-16T03:05:40;25.87;;;24.10;;
15905;SDS011;8051;50.820;4.884;2024-02-16T03:08:08;25.83;;;24.03;;
15905;SDS011;8051;50.820;4.884;2024-02-16T03:10:36;28.23;;;25.67;;
15905;SDS011;8051;50.820;4.884;2024-02-16T03:13:04;26.53;;;24.53;;
15905;SDS011;8051;50.820;4.884;2024-02-16T03:15:35;27.10;;;25.00;;
15905;SDS011;8051;50.820;4.884;2024-02-16T03:18:04;27.17;;;25.07;;
15905;SDS011;8051;50.820;4.884;2024-02-16T03:20:34;27.70;;;25.70;;
15905;SDS011;8051;50.820;4.884;2024-02-16T03:23:01;27.57;;;25.53;;
15905;SDS011;8051;50.820;4.884;2024-02-16T03:25:29;27.80;;;25.60;;
15905;SDS011;8051;50.820;4.884;2024-02-16T03:27:56;29.20;;;26.80;;
15905;SDS011;8051;50.820;4.884;2024-02-16T03:30:23;28.20;;;26.10;;
15905;SDS011;8051;50.820;4.884;2024-02-16T03:32:52;28.73;;;26.20;;
15905;SDS011;8051;50.820;4.884;2024-02-16T03:35:20;28.63;;;26.43;;
15905;SDS011;8051;50.820;4.884;2024-02-16T03:37:47;28.67;;;26.30;;
15905;SDS011;8051;50.820;4.884;2024-02-16T03:40:15;27.77;;;25.57;;
15905;SDS011;8051;50.820;4.884;2024-02-16T03:42:43;26.93;;;24.73;;
15905;SDS011;8051;50.820;4.884;2024-02-16T03:45:11;27.20;;;25.10;;
15905;SDS011;8051;50.820;4.884;2024-02-16T03:47:39;27.77;;;25.63;;
15905;SDS011;8051;50.820;4.884;2024-02-16T03:50:09;26.93;;;24.93;;
15905;SDS011;8051;50.820;4.884;2024-02-16T03:52:37;28.53;;;26.17;;
15905;SDS011;8051;50.820;4.884;2024-02-16T03:55:05;27.50;;;25.30;;
15905;SDS011;8051;50.820;4.884;2024-02-16T03:57:32;28.20;;;25.90;;
15905;SDS011;8051;50.820;4.884;2024-02-16T04:00:00;27.97;;;25.67;;
15905;SDS011;8051;50.820;4.884;2024-02-16T04:02:31;26.63;;;24.63;;
15905;SDS011;8051;50.820;4.884;2024-02-16T04:04:58;27.37;;;25.20;;
15905;SDS011;8051;50.820;4.884;2024-02-16T04:07:27;27.40;;;25.30;;
15905;SDS011;8051;50.820;4.884;2024-02-16T04:09:54;26.70;;;24.60;;
15905;SDS011;8051;50.820;4.884;2024-02-16T04:12:22;27.87;;;25.67;;
15905;SDS011;8051;50.820;4.884;2024-02-16T04:14:49;27.23;;;25.13;;
15905;SDS011;8051;50.820;4.884;2024-02-16T04:17:17;28.07;;;25.77;;
15905;SDS011;8051;50.820;4.884;2024-02-16T04:19:44;28.93;;;26.10;;
15905;SDS011;8051;50.820;4.884;2024-02-16T04:22:12;27.53;;;25.10;;
15905;SDS011;8051;50.820;4.884;2024-02-16T04:24:41;26.53;;;24.40;;
15905;SDS011;8051;50.820;4.884;2024-02-16T04:27:08;27.13;;;24.77;;
15905;SDS011;8051;50.820;4.884;2024-02-16T04:29:35;26.27;;;24.30;;
15905;SDS011;8051;50.820;4.884;2024-02-16T04:32:03;26.93;;;24.60;;
15905;SDS011;8051;50.820;4.884;2024-02-16T04:34:31;27.17;;;25.07;;
15905;SDS011;8051;50.820;4.884;2024-02-16T04:36:58;25.60;;;23.80;;
15905;SDS011;8051;50.820;4.884;2024-02-16T04:39:26;25.23;;;23.43;;
15905;SDS011;8051;50.820;4.884;2024-02-16T04:41:56;25.47;;;23.67;;
15905;SDS011;8051;50.820;4.884;2024-02-16T04:44:23;28.10;;;25.57;;
15905;SDS011;8051;50.820;4.884;2024-02-16T04:46:52;26.57;;;24.43;;
15905;SDS011;8051;50.820;4.884;2024-02-16T04:49:19;26.77;;;24.80;;
15905;SDS011;8051;50.820;4.884;2024-02-16T04:51:47;26.77;;;24.67;;
15905;SDS011;8051;50.820;4.884;2024-02-16T04:54:14;27.80;;;25.33;;
15905;SDS011;8051;50.820;4.884;2024-02-16T04:56:42;27.10;;;24.90;;
15905;SDS011;8051;50.820;4.884;2024-02-16T04:59:11;29.50;;;26.87;;
15905;SDS011;8051;50.820;4.884;2024-02-16T05:01:38;28.20;;;25.80;;
15905;SDS011;8051;50.820;4.884;2024-02-16T05:04:06;28.23;;;26.10;;
15905;SDS011;8051;50.820;4.884;2024-02-16T05:06:38;28.90;;;26.47;;
15905;SDS011;8051;50.820;4.884;2024-02-16T05:09:06;29.60;;;27.20;;
15905;SDS011;8051;50.820;4.884;2024-02-16T05:11:33;27.97;;;25.63;;
15905;SDS011;8051;50.820;4.884;2024-02-16T05:14:01;27.30;;;25.13;;
15905;SDS011;8051;50.820;4.884;2024-02-16T05:16:30;29.57;;;26.87;;
15905;SDS011;8051;50.820;4.884;2024-02-16T05:18:57;28.73;;;26.53;;
15905;SDS011;8051;50.820;4.884;2024-02-16T05:21:25;27.50;;;25.40;;
15905;SDS011;8051;50.820;4.884;2024-02-16T05:23:52;28.30;;;25.77;;
15905;SDS011;8051;50.820;4.884;2024-02-16T05:26:20;27.67;;;25.30;;
15905;SDS011;8051;50.820;4.884;2024-02-16T05:28:47;28.33;;;25.93;;
15905;SDS011;8051;50.820;4.884;2024-02-16T05:31:16;29.20;;;26.40;;
15905;SDS011;8051;50.820;4.884;2024-02-16T05:33:45;26.90;;;24.70;;
15905;SDS011;8051;50.820;4.884;2024-02-16T05:36:16;26.73;;;24.43;;
15905;SDS011;8051;50.820;4.884;2024-02-16T05:38:45;28.27;;;25.43;;
15905;SDS011;8051;50.820;4.884;2024-02-16T05:41:13;27.90;;;25.83;;
15905;SDS011;8051;50.820;4.884;2024-02-16T05:43:42;27.70;;;25.50;;
15905;SDS011;8051;50.820;4.884;2024-02-16T05:46:12;29.63;;;27.23;;
15905;SDS011;8051;50.820;4.884;2024-02-16T05:48:40;26.60;;;24.60;;
15905;SDS011;8051;50.820;4.884;2024-02-16T05:51:09;27.83;;;25.50;;
15905;SDS011;8051;50.820;4.884;2024-02-16T05:53:37;27.20;;;25.00;;
15905;SDS011;8051;50.820;4.884;2024-02-16T05:56:05;27.77;;;25.53;;
15905;SDS011;8051;50.820;4.884;2024-02-16T05:58:35;28.07;;;25.73;;
15905;SDS011;8051;50.820;4.884;2024-02-16T06:01:02;29.23;;;26.83;;
15905;SDS011;8051;50.820;4.884;2024-02-16T06:03:30;27.37;;;25.17;;
15905;SDS011;8051;50.820;4.884;2024-02-16T06:05:58;27.67;;;25.50;;
15905;SDS011;8051;50.820;4.884;2024-02-16T06:08:27;27.50;;;24.97;;
15905;SDS011;8051;50.820;4.884;2024-02-16T06:10:54;26.07;;;23.93;;
15905;SDS011;8051;50.820;4.884;2024-02-16T06:13:21;27.20;;;25.13;;
15905;SDS011;8051;50.820;4.884;2024-02-16T06:15:49;28.50;;;26.00;;
15905;SDS011;8051;50.820;4.884;2024-02-16T06:18:16;30.83;;;27.70;;
15905;SDS011;8051;50.820;4.884;2024-02-16T06:20:44;30.17;;;27.60;;
15905;SDS011;8051;50.820;4.884;2024-02-16T06:23:11;30.90;;;28.10;;
15905;SDS011;8051;50.820;4.884;2024-02-16T06:25:43;30.07;;;27.57;;
15905;SDS011;8051;50.820;4.884;2024-02-16T06:28:11;29.40;;;26.47;;
15905;SDS011;8051;50.820;4.884;2024-02-16T06:30:38;29.57;;;26.57;;
15905;SDS011;8051;50.820;4.884;2024-02-16T06:33:06;29.43;;;26.53;;
15905;SDS011;8051;50.820;4.884;2024-02-16T06:35:34;27.90;;;25.47;;
15905;SDS011;8051;50.820;4.884;2024-02-16T06:38:02;29.53;;;27.17;;
15905;SDS011;8051;50.820;4.884;2024-02-16T06:40:29;29.00;;;26.60;;
15905;SDS011;8051;50.820;4.884;2024-02-16T06:42:58;28.60;;;25.97;;
15905;SDS011;8051;50.820;4.884;2024-02-16T06:45:26;26.93;;;24.93;;
15905;SDS011;8051;50.820;4.884;2024-02-16T06:47:54;29.27;;;26.87;;
15905;SDS011;8051;50.820;4.884;2024-02-16T06:50:22;27.93;;;25.63;;
15905;SDS011;8051;50.820;4.884;2024-02-16T06:52:49;28.27;;;25.90;;
15905;SDS011;8051;50.820;4.884;2024-02-16T06:55:16;28.80;;;26.40;;
15905;SDS011;8051;50.820;4.884;2024-02-16T06:57:44;28.30;;;26.10;;
15905;SDS011;8051;50.820;4.884;2024-02-16T07:00:14;29.53;;;27.03;;
15905;SDS011;8051;50.820;4.884;2024-02-16T07:02:42;26.97;;;24.87;;
15905;SDS011;8051;50.820;4.884;2024-02-16T07:05:10;27.30;;;25.30;;
15905;SDS011;8051;50.820;4.884;2024-02-16T07:07:38;25.20;;;23.20;;
15905;SDS011;8051;50.820;4.884;2024-02-16T07:10:06;24.70;;;22.90;;
15905;SDS011;8051;50.820;4.884;2024-02-16T07:12:38;26.80;;;24.50;;
15905;SDS011;8051;50.820;4.884;2024-02-16T07:15:07;25.13;;;23.13;;
15905;SDS011;8051;50.820;4.884;2024-02-16T07:17:36;24.87;;;23.17;;
15905;SDS011;8051;50.820;4.884;2024-02-16T07:20:04;28.70;;;26.03;;
15905;SDS011;8051;50.820;4.884;2024-02-16T07:22:32;28.07;;;25.83;;
15905;SDS011;8051;50.820;4.884;2024-02-16T07:25:00;27.67;;;25.43;;
15905;SDS011;8051;50.820;4.884;2024-02-16T07:27:28;29.10;;;26.60;;
15905;SDS011;8051;50.820;4.884;2024-02-16T07:29:56;28.33;;;26.10;;
15905;SDS011;8051;50.820;4.884;2024-02-16T07:32:23;27.67;;;25.47;;
15905;SDS011;8051;50.820;4.884;2024-02-16T07:34:52;27.80;;;25.50;;
15905;SDS011;8051;50.820;4.884;2024-02-16T07:37:20;27.33;;;25.03;;
15905;SDS011;8051;50.820;4.884;2024-02-16T07:39:47;28.47;;;26.13;;
15905;SDS011;8051;50.820;4.884;2024-02-16T07:42:15;28.20;;;25.90;;
15905;SDS011;8051;50.820;4.884;2024-02-16T07:44:42;27.43;;;25.23;;
15905;SDS011;8051;50.820;4.884;2024-02-16T07:47:10;28.73;;;26.27;;
15905;SDS011;8051;50.820;4.884;2024-02-16T07:49:38;26.67;;;24.57;;
15905;SDS011;8051;50.820;4.884;2024-02-16T07:52:07;27.80;;;25.30;;
15905;SDS011;8051;50.820;4.884;2024-02-16T07:54:34;27.87;;;25.47;;
15905;SDS011;8051;50.820;4.884;2024-02-16T07:57:02;29.47;;;26.80;;
15905;SDS011;8051;50.820;4.884;2024-02-16T07:59:30;29.97;;;27.37;;
15905;SDS011;8051;50.820;4.884;2024-02-16T08:01:57;27.30;;;25.30;;
15905;SDS011;8051;50.820;4.884;2024-02-16T08:04:25;27.63;;;25.27;;
15905;SDS011;8051;50.820;4.884;2024-02-16T08:06:52;28.73;;;26.20;;
15905;SDS011;8051;50.820;4.884;2024-02-16T08:09:21;28.57;;;26.17;;
15905;SDS011;8051;50.820;4.884;2024-02-16T08:11:49;27.80;;;25.47;;
15905;SDS011;8051;50.820;4.884;2024-02-16T08:14:16;27.37;;;25.07;;
15905;SDS011;8051;50.820;4.884;2024-02-16T08:16:43;27.20;;;24.70;;
15905;SDS011;8051;50.820;4.884;2024-02-16T08:19:11;27.63;;;25.47;;
15905;SDS011;8051;50.820;4.884;2024-02-16T08:21:39;28.30;;;25.90;;
15905;SDS011;8051;50.820;4.884;2024-02-16T08:24:06;27.13;;;25.03;;
15905;SDS011;8051;50.820;4.884;2024-02-16T08:26:35;31.40;;;26.20;;
15905;SDS011;8051;50.820;4.884;2024-02-16T08:29:03;28.30;;;25.80;;
15905;SDS011;8051;50.820;4.884;2024-02-16T08:31:30;27.90;;;25.53;;
15905;SDS011;8051;50.820;4.884;2024-02-16T08:33:58;28.43;;;25.83;;
15905;SDS011;8051;50.820;4.884;2024-02-16T08:36:25;29.03;;;26.50;;
15905;SDS011;8051;50.820;4.884;2024-02-16T08:38:55;30.13;;;27.40;;
15905;SDS011;8051;50.820;4.884;2024-02-16T08:41:23;28.40;;;25.93;;
15905;SDS011;8051;50.820;4.884;2024-02-16T08:43:52;27.20;;;25.10;;
15905;SDS011;8051;50.820;4.884;2024-02-16T08:46:20;28.13;;;25.53;;
15905;SDS011;8051;50.820;4.884;2024-02-16T08:48:48;27.77;;;25.37;;
15905;SDS011;8051;50.820;4.884;2024-02-16T08:51:15;27.57;;;25.17;;
15905;SDS011;8051;50.820;4.884;2024-02-16T08:53:42;27.53;;;25.23;;
15905;SDS011;8051;50.820;4.884;2024-02-16T08:56:10;29.77;;;27.20;;
15905;SDS011;8051;50.820;4.884;2024-02-16T08:58:37;27.67;;;25.57;;
15905;SDS011;8051;50.820;4.884;2024-02-16T09:01:06;26.97;;;24.73;;
15905;SDS011;8051;50.820;4.884;2024-02-16T09:03:34;27.10;;;24.97;;
15905;SDS011;8051;50.820;4.884;2024-02-16T09:06:03;29.17;;;26.53;;
15905;SDS011;8051;50.820;4.884;2024-02-16T09:08:32;28.67;;;26.17;;
15905;SDS011;8051;50.820;4.884;2024-02-16T09:11:00;30.27;;;27.37;;
15905;SDS011;8051;50.820;4.884;2024-02-16T09:13:30;29.70;;;27.10;;
15905;SDS011;8051;50.820;4.884;2024-02-16T09:15:58;29.27;;;26.70;;
15905;SDS011;8051;50.820;4.884;2024-02-16T09:18:27;29.97;;;26.97;;
15905;SDS011;8051;50.820;4.884;2024-02-16T09:20:55;29.63;;;27.23;;
15905;SDS011;8051;50.820;4.884;2024-02-16T09:23:22;30.27;;;27.77;;
15905;SDS011;8051;50.820;4.884;2024-02-16T09:25:50;31.13;;;28.50;;
15905;SDS011;8051;50.820;4.884;2024-02-16T09:28:17;28.73;;;26.03;;
15905;SDS011;8051;50.820;4.884;2024-02-16T09:30:45;27.60;;;25.30;;
15905;SDS011;8051;50.820;4.884;2024-02-16T09:33:13;27.10;;;25.00;;
15905;SDS011;8051;50.820;4.884;2024-02-16T09:35:42;26.97;;;24.60;;
15905;SDS011;8051;50.820;4.884;2024-02-16T09:38:10;26.70;;;24.33;;
15905;SDS011;8051;50.820;4.884;2024-02-16T09:40:38;25.30;;;23.47;;
15905;SDS011;8051;50.820;4.884;2024-02-16T09:43:05;25.33;;;23.07;;
15905;SDS011;8051;50.820;4.884;2024-02-16T09:45:33;25.83;;;23.33;;
15905;SDS011;8051;50.820;4.884;2024-02-16T09:48:01;25.60;;;22.90;;
15905;SDS011;8051;50.820;4.884;2024-02-16T09:50:35;26.57;;;23.90;;
15905;SDS011;8051;50.820;4.884;2024-02-16T09:53:04;24.37;;;22.20;;
15905;SDS011;8051;50.820;4.884;2024-02-16T09:55:33;25.80;;;23.40;;
15905;SDS011;8051;50.820;4.884;2024-02-16T09:58:01;25.20;;;23.03;;
15905;SDS011;8051;50.820;4.884;2024-02-16T10:00:30;25.50;;;23.30;;
15905;SDS011;8051;50.820;4.884;2024-02-16T10:02:57;25.03;;;23.03;;
15905;SDS011;8051;50.820;4.884;2024-02-16T10:05:25;25.13;;;22.97;;
15905;SDS011;8051;50.820;4.884;2024-02-16T10:07:52;27.47;;;24.57;;
15905;SDS011;8051;50.820;4.884;2024-02-16T10:10:21;26.00;;;23.83;;
15905;SDS011;8051;50.820;4.884;2024-02-16T10:12:49;25.60;;;23.20;;
15905;SDS011;8051;50.820;4.884;2024-02-16T10:15:20;26.30;;;24.00;;
15905;SDS011;8051;50.820;4.884;2024-02-16T10:17:58;25.90;;;23.70;;
15905;SDS011;8051;50.820;4.884;2024-02-16T10:20:26;26.57;;;24.00;;
15905;SDS011;8051;50.820;4.884;2024-02-16T10:23:03;26.23;;;23.87;;
15905;SDS011;8051;50.820;4.884;2024-02-16T10:25:33;26.47;;;24.27;;
15905;SDS011;8051;50.820;4.884;2024-02-16T10:28:03;27.03;;;24.50;;
15905;SDS011;8051;50.820;4.884;2024-02-16T10:30:34;26.03;;;23.73;;
15905;SDS011;8051;50.820;4.884;2024-02-16T10:33:04;26.63;;;24.33;;
15905;SDS011;8051;50.820;4.884;2024-02-16T10:35:32;27.27;;;24.43;;
15905;SDS011;8051;50.820;4.884;2024-02-16T10:38:01;27.43;;;25.13;;
15905;SDS011;8051;50.820;4.884;2024-02-16T10:40:33;27.13;;;24.70;;
15905;SDS011;8051;50.820;4.884;2024-02-16T10:43:04;27.03;;;24.63;;
15905;SDS011;8051;50.820;4.884;2024-02-16T10:45:33;26.47;;;24.17;;
15905;SDS011;8051;50.820;4.884;2024-02-16T10:48:01;27.60;;;24.57;;
15905;SDS011;8051;50.820;4.884;2024-02-16T10:50:29;25.93;;;23.90;;
15905;SDS011;8051;50.820;4.884;2024-02-16T10:52:58;27.13;;;24.70;;
15905;SDS011;8051;50.820;4.884;2024-02-16T10:55:30;28.90;;;24.77;;
15905;SDS011;8051;50.820;4.884;2024-02-16T10:58:00;28.37;;;25.57;;
15905;SDS011;8051;50.820;4.884;2024-02-16T11:00:27;28.07;;;25.43;;
15905;SDS011;8051;50.820;4.884;2024-02-16T11:02:55;28.80;;;25.73;;
15905;SDS011;8051;50.820;4.884;2024-02-16T11:05:34;28.93;;;26.13;;
15905;SDS011;8051;50.820;4.884;2024-02-16T11:08:02;29.87;;;26.63;;
15905;SDS011;8051;50.820;4.884;2024-02-16T11:10:31;32.03;;;27.57;;
15905;SDS011;8051;50.820;4.884;2024-02-16T11:13:03;30.53;;;27.60;;
15905;SDS011;8051;50.820;4.884;2024-02-16T11:15:32;31.63;;;26.20;;
15905;SDS011;8051;50.820;4.884;2024-02-16T11:18:01;29.30;;;26.67;;
15905;SDS011;8051;50.820;4.884;2024-02-16T11:20:36;28.80;;;26.20;;
15905;SDS011;8051;50.820;4.884;2024-02-16T11:23:05;30.77;;;27.60;;
15905;SDS011;8051;50.820;4.884;2024-02-16T11:25:33;32.20;;;28.80;;
15905;SDS011;8051;50.820;4.884;2024-02-16T11:28:01;30.30;;;27.03;;
15905;SDS011;8051;50.820;4.884;2024-02-16T11:30:32;29.73;;;27.00;;
15905;SDS011;8051;50.820;4.884;2024-02-16T11:33:01;29.57;;;26.77;;
15905;SDS011;8051;50.820;4.884;2024-02-16T11:35:30;30.73;;;27.50;;
15905;SDS011;8051;50.820;4.884;2024-02-16T11:37:57;31.07;;;27.63;;
15905;SDS011;8051;50.820;4.884;2024-02-16T11:40:25;28.80;;;26.30;;
15905;SDS011;8051;50.820;4.884;2024-02-16T11:42:58;29.50;;;26.63;;
15905;SDS011;8051;50.820;4.884;2024-02-16T11:45:27;28.57;;;25.83;;
15905;SDS011;8051;50.820;4.884;2024-02-16T11:48:04;29.80;;;24.97;;
15905;SDS011;8051;50.820;4.884;2024-02-16T11:50:33;29.80;;;26.10;;
15905;SDS011;8051;50.820;4.884;2024-02-16T11:53:00;31.40;;;25.50;;
15905;SDS011;8051;50.820;4.884;2024-02-16T11:55:28;29.30;;;26.23;;
15905;SDS011;8051;50.820;4.884;2024-02-16T11:57:57;27.37;;;24.90;;
15905;SDS011;8051;50.820;4.884;2024-02-16T12:00:25;26.70;;;24.07;;
15905;SDS011;8051;50.820;4.884;2024-02-16T12:03:00;24.87;;;22.67;;
15905;SDS011;8051;50.820;4.884;2024-02-16T12:05:27;25.63;;;23.30;;
15905;SDS011;8051;50.820;4.884;2024-02-16T12:07:57;25.70;;;23.20;;
15905;SDS011;8051;50.820;4.884;2024-02-16T12:10:25;26.40;;;22.80;;
15905;SDS011;8051;50.820;4.884;2024-02-16T12:12:53;27.17;;;22.10;;
15905;SDS011;8051;50.820;4.884;2024-02-16T12:15:21;28.93;;;21.53;;
15905;SDS011;8051;50.820;4.884;2024-02-16T12:17:58;25.37;;;22.87;;
15905;SDS011;8051;50.820;4.884;2024-02-16T12:20:28;31.80;;;23.23;;
15905;SDS011;8051;50.820;4.884;2024-02-16T12:22:56;25.13;;;21.73;;
15905;SDS011;8051;50.820;4.884;2024-02-16T12:25:24;22.60;;;19.63;;
15905;SDS011;8051;50.820;4.884;2024-02-16T12:27:52;22.73;;;20.57;;
15905;SDS011;8051;50.820;4.884;2024-02-16T12:30:19;20.60;;;18.53;;
15905;SDS011;8051;50.820;4.884;2024-02-16T12:32:46;21.57;;;19.67;;
15905;SDS011;8051;50.820;4.884;2024-02-16T12:35:15;26.63;;;20.40;;
15905;SDS011;8051;50.820;4.884;2024-02-16T12:37:43;26.87;;;18.73;;
15905;SDS011;8051;50.820;4.884;2024-02-16T12:40:13;24.10;;;18.20;;
15905;SDS011;8051;50.820;4.884;2024-02-16T12:42:40;20.67;;;17.60;;
15905;SDS011;8051;50.820;4.884;2024-02-16T12:45:08;18.60;;;16.63;;
15905;SDS011;8051;50.820;4.884;2024-02-16T12:47:36;19.10;;;17.07;;
15905;SDS011;8051;50.820;4.884;2024-02-16T12:50:04;22.47;;;17.03;;
15905;SDS011;8051;50.820;4.884;2024-02-16T12:52:33;21.43;;;17.20;;
15905;SDS011;8051;50.820;4.884;2024-02-16T12:55:04;21.50;;;16.47;;
15905;SDS011;8051;50.820;4.884;2024-02-16T12:57:32;16.60;;;14.80;;
15905;SDS011;8051;50.820;4.884;2024-02-16T12:59:59;18.30;;;14.97;;
15905;SDS011;8051;50.820;4.884;2024-02-16T13:02:28;17.33;;;13.70;;
15905;SDS011;8051;50.820;4.884;2024-02-16T13:04:55;18.33;;;14.00;;
15905;SDS011;8051;50.820;4.884;2024-02-16T13:07:23;14.53;;;13.00;;
15905;SDS011;8051;50.820;4.884;2024-02-16T13:09:53;14.60;;;12.87;;
15905;SDS011;8051;50.820;4.884;2024-02-16T13:12:20;14.50;;;12.90;;
15905;SDS011;8051;50.820;4.884;2024-02-16T13:14:49;12.63;;;11.13;;
15905;SDS011;8051;50.820;4.884;2024-02-16T13:17:16;11.50;;;10.33;;
15905;SDS011;8051;50.820;4.884;2024-02-16T13:19:44;10.53;;;9.47;;
15905;SDS011;8051;50.820;4.884;2024-02-16T13:22:11;10.67;;;9.63;;
15905;SDS011;8051;50.820;4.884;2024-02-16T13:24:38;9.03;;;8.30;;
15905;SDS011;8051;50.820;4.884;2024-02-16T13:27:08;8.70;;;8.03;;
15905;SDS011;8051;50.820;4.884;2024-02-16T13:29:35;7.50;;;6.77;;
15905;SDS011;8051;50.820;4.884;2024-02-16T13:32:03;8.60;;;7.90;;
15905;SDS011;8051;50.820;4.884;2024-02-16T13:34:31;9.67;;;8.83;;
15905;SDS011;8051;50.820;4.884;2024-02-16T13:36:58;9.17;;;8.27;;
15905;SDS011;8051;50.820;4.884;2024-02-16T13:39:25;10.73;;;8.37;;
15905;SDS011;8051;50.820;4.884;2024-02-16T13:41:53;8.93;;;8.03;;
15905;SDS011;8051;50.820;4.884;2024-02-16T13:44:23;9.37;;;8.47;;
15905;SDS011;8051;50.820;4.884;2024-02-16T13:46:51;8.67;;;7.87;;
15905;SDS011;8051;50.820;4.884;2024-02-16T13:49:20;10.40;;;9.23;;
15905;SDS011;8051;50.820;4.884;2024-02-16T13:51:47;10.27;;;9.30;;
15905;SDS011;8051;50.820;4.884;2024-02-16T13:54:15;10.83;;;9.50;;
15905;SDS011;8051;50.820;4.884;2024-02-16T13:56:43;9.93;;;9.00;;
15905;SDS011;8051;50.820;4.884;2024-02-16T13:59:10;10.47;;;9.57;;
15905;SDS011;8051;50.820;4.884;2024-02-16T14:01:39;12.13;;;11.00;;
15905;SDS011;8051;50.820;4.884;2024-02-16T14:04:06;12.30;;;11.20;;
15905;SDS011;8051;50.820;4.884;2024-02-16T14:06:34;12.27;;;11.10;;
15905;SDS011;8051;50.820;4.884;2024-02-16T14:09:02;12.17;;;11.17;;
15905;SDS011;8051;50.820;4.884;2024-02-16T14:11:33;13.37;;;12.17;;
15905;SDS011;8051;50.820;4.884;2024-02-16T14:14:01;13.73;;;12.53;;
15905;SDS011;8051;50.820;4.884;2024-02-16T14:16:29;14.93;;;13.70;;
15905;SDS011;8051;50.820;4.884;2024-02-16T14:18:58;16.90;;;15.40;;
15905;SDS011;8051;50.820;4.884;2024-02-16T14:21:26;15.57;;;14.23;;
15905;SDS011;8051;50.820;4.884;2024-02-16T14:23:53;15.73;;;14.43;;
15905;SDS011;8051;50.820;4.884;2024-02-16T14:26:20;16.87;;;15.50;;
15905;SDS011;8051;50.820;4.884;2024-02-16T14:28:49;17.47;;;15.87;;
15905;SDS011;8051;50.820;4.884;2024-02-16T14:31:16;17.60;;;16.23;;
15905;SDS011;8051;50.820;4.884;2024-02-16T14:33:45;18.60;;;17.30;;
15905;SDS011;8051;50.820;4.884;2024-02-16T14:36:15;19.37;;;17.83;;
15905;SDS011;8051;50.820;4.884;2024-02-16T14:38:42;17.80;;;16.37;;
15905;SDS011;8051;50.820;4.884;2024-02-16T14:41:10;20.30;;;18.67;;